Aeroporto :
LOGIN :

Iscrizione | Disclaimer

   EN    FR    IT 

 










Sommario :    VFR   VFR Marginale   IFR   IFR Intensivo   IFR Molto Intensivo
Visibilità : 
Base nubi : 
>= 8 km
>= 3000ft
5 / 8 km
1000 / 3000 ft
1500m / 5 km
500 / 1000 ft
800 / 1500m
200 / 500 ft
< 800m
< 200 ft
Simboli :   Temporali  Nebbia  Neve Forte  Precipitazioni Forti  Vento > 20 kt
SIGMETs :   Varie  Temporali  Ghiacco  Turbolenza  Onda orograficha  Ceneri Vulcaniche







- Altitudine del aeroporto : 171 ft
- Codice IATA : EGC
- Carte del aeroporto


LFBE - Bergerac

ULTIMO METAR :
  • 210530Z AUTO 06001KT 9999 SCT030 BKN044 BKN052 15/15 Q1016 NOSIG

METARs OBSOLETI :
  • 210500Z AUTO VRB02KT 9999 FEW035 OVC064 15/14 Q1016 NOSIG
  • 210430Z AUTO 04003KT 9999 FEW049 OVC062 15/14 Q1016 NOSIG
  • 210400Z AUTO 08001KT 9999 SCT049 OVC060 14/14 Q1016 NOSIG
  • 210330Z AUTO 00000KT CAVOK 14/14 Q1016 NOSIG
  • 210300Z AUTO VRB02KT CAVOK 13/13 Q1016 NOSIG

TAF TAF LFBE
Valido dal 21 a 06 ore il 22 a 06 ore UTC


210500Z 2106/2206 27005KT 9999 BKN040
PROB30
TEMPO 2115/2118 4000 SHRA BKN040TCU
BECMG 2118/2120 CAVOK
Nessun NOTAM noto per questo aeroporto.



MetMap, La meteo Aeronautica in un colpo d'occhio ! - Copyright ORBIFLY Dicembre 2007 - Disclaimer

ORBIFLY MET'MAP TEAM :

Programmazione e sviluppo : Alexandra Zaïnal
Concezione e sviluppo : Baudouin d'Aumeries
Co-Programmazione e sviluppo : Marc-Olivier Méhu
Supporto tecnico e logistico : Manuel Goepfert
Aiuto per la traduzione : Arnaldo La Scala

Contatto : metmap@orbifly.com




FONTI E CREDITI :

   NOAA